Airport View

Enter AWOS ICAO identifier for current METAR.

ex. KFNL

22 Sep 2019 00:02

Frequency: 121.55

Phone: 907-955-3896

Other Area AWOS: PFEL - PAUN - PAKK - PAGL

TAF PAUN 212320Z 2200/2224 22009KT P6SM SCT030 FM220300 11014G20KT P6SM -RA SCT025 BKN050 OVC100 FM221500 12015G22KT P6SM -RA BKN015 OVC030